sensor_id;sensor_type;location;lat;lon;timestamp;P1;durP1;ratioP1;P2;durP2;ratioP2
62268;SDS011;56517;51.634;5.566;2023-03-12T00:03:13;18.98;;;10.02;;
62268;SDS011;56517;51.634;5.566;2023-03-12T00:08:34;31.40;;;12.02;;
62268;SDS011;56517;51.634;5.566;2023-03-12T00:13:56;18.60;;;9.80;;
62268;SDS011;56517;51.634;5.566;2023-03-12T00:19:17;14.05;;;8.68;;
62268;SDS011;56517;51.634;5.566;2023-03-12T00:24:38;27.10;;;11.02;;
62268;SDS011;56517;51.634;5.566;2023-03-12T00:29:59;16.83;;;10.50;;
62268;SDS011;56517;51.634;5.566;2023-03-12T00:35:19;25.80;;;10.93;;
62268;SDS011;56517;51.634;5.566;2023-03-12T00:40:40;16.63;;;9.10;;
62268;SDS011;56517;51.634;5.566;2023-03-12T00:46:01;20.50;;;10.38;;
62268;SDS011;56517;51.634;5.566;2023-03-12T00:51:22;14.18;;;9.13;;
62268;SDS011;56517;51.634;5.566;2023-03-12T00:56:43;16.65;;;9.23;;
62268;SDS011;56517;51.634;5.566;2023-03-12T01:02:06;23.73;;;10.32;;
62268;SDS011;56517;51.634;5.566;2023-03-12T01:07:27;14.05;;;8.65;;
62268;SDS011;56517;51.634;5.566;2023-03-12T01:12:48;26.45;;;10.93;;
62268;SDS011;56517;51.634;5.566;2023-03-12T01:18:09;20.50;;;9.77;;
62268;SDS011;56517;51.634;5.566;2023-03-12T01:23:30;29.02;;;10.70;;
62268;SDS011;56517;51.634;5.566;2023-03-12T01:28:51;17.20;;;9.95;;
62268;SDS011;56517;51.634;5.566;2023-03-12T01:34:12;14.50;;;9.13;;
62268;SDS011;56517;51.634;5.566;2023-03-12T01:39:33;17.30;;;10.35;;
62268;SDS011;56517;51.634;5.566;2023-03-12T01:44:57;16.50;;;10.45;;
62268;SDS011;56517;51.634;5.566;2023-03-12T01:50:18;24.63;;;10.32;;
62268;SDS011;56517;51.634;5.566;2023-03-12T01:55:39;18.95;;;10.73;;
62268;SDS011;56517;51.634;5.566;2023-03-12T02:01:00;26.15;;;11.02;;
62268;SDS011;56517;51.634;5.566;2023-03-12T02:06:24;15.02;;;10.13;;
62268;SDS011;56517;51.634;5.566;2023-03-12T02:11:46;19.70;;;10.20;;
62268;SDS011;56517;51.634;5.566;2023-03-12T02:17:07;20.55;;;9.68;;
62268;SDS011;56517;51.634;5.566;2023-03-12T02:22:28;20.27;;;9.48;;
62268;SDS011;56517;51.634;5.566;2023-03-12T02:27:48;18.88;;;10.35;;
62268;SDS011;56517;51.634;5.566;2023-03-12T02:33:10;24.98;;;10.77;;
62268;SDS011;56517;51.634;5.566;2023-03-12T02:38:33;16.73;;;9.27;;
62268;SDS011;56517;51.634;5.566;2023-03-12T02:49:26;14.48;;;9.05;;
62268;SDS011;56517;51.634;5.566;2023-03-12T02:54:47;18.83;;;10.93;;
62268;SDS011;56517;51.634;5.566;2023-03-12T03:00:08;16.35;;;9.43;;
62268;SDS011;56517;51.634;5.566;2023-03-12T03:05:32;24.27;;;11.85;;
62268;SDS011;56517;51.634;5.566;2023-03-12T03:10:53;40.83;;;13.75;;
62268;SDS011;56517;51.634;5.566;2023-03-12T03:16:14;19.17;;;9.80;;
62268;SDS011;56517;51.634;5.566;2023-03-12T03:21:35;16.85;;;10.27;;
62268;SDS011;56517;51.634;5.566;2023-03-12T03:26:56;20.27;;;9.77;;
62268;SDS011;56517;51.634;5.566;2023-03-12T03:32:17;21.70;;;10.68;;
62268;SDS011;56517;51.634;5.566;2023-03-12T03:37:38;16.70;;;9.90;;
62268;SDS011;56517;51.634;5.566;2023-03-12T03:42:59;27.75;;;11.57;;
62268;SDS011;56517;51.634;5.566;2023-03-12T03:48:20;20.73;;;10.75;;
62268;SDS011;56517;51.634;5.566;2023-03-12T03:53:41;12.45;;;9.45;;
62268;SDS011;56517;51.634;5.566;2023-03-12T03:59:02;15.05;;;10.25;;
62268;SDS011;56517;51.634;5.566;2023-03-12T04:04:23;15.60;;;10.27;;
62268;SDS011;56517;51.634;5.566;2023-03-12T04:09:44;21.35;;;11.45;;
62268;SDS011;56517;51.634;5.566;2023-03-12T04:15:05;14.95;;;10.00;;
62268;SDS011;56517;51.634;5.566;2023-03-12T04:20:26;22.65;;;11.35;;
62268;SDS011;56517;51.634;5.566;2023-03-12T04:25:47;21.50;;;10.40;;
62268;SDS011;56517;51.634;5.566;2023-03-12T04:31:09;19.48;;;11.27;;
62268;SDS011;56517;51.634;5.566;2023-03-12T04:36:30;26.23;;;11.45;;
62268;SDS011;56517;51.634;5.566;2023-03-12T04:41:51;21.98;;;10.90;;
62268;SDS011;56517;51.634;5.566;2023-03-12T04:47:12;27.67;;;11.52;;
62268;SDS011;56517;51.634;5.566;2023-03-12T04:52:32;20.75;;;11.13;;
62268;SDS011;56517;51.634;5.566;2023-03-12T04:57:53;22.60;;;10.98;;
62268;SDS011;56517;51.634;5.566;2023-03-12T05:03:14;24.63;;;10.25;;
62268;SDS011;56517;51.634;5.566;2023-03-12T05:08:35;15.85;;;10.68;;
62268;SDS011;56517;51.634;5.566;2023-03-12T05:13:56;17.48;;;10.50;;
62268;SDS011;56517;51.634;5.566;2023-03-12T05:19:17;16.00;;;9.27;;
62268;SDS011;56517;51.634;5.566;2023-03-12T05:24:38;24.05;;;11.20;;
62268;SDS011;56517;51.634;5.566;2023-03-12T05:29:59;13.63;;;10.15;;
62268;SDS011;56517;51.634;5.566;2023-03-12T05:35:20;16.20;;;9.40;;
62268;SDS011;56517;51.634;5.566;2023-03-12T05:40:41;15.40;;;10.27;;
62268;SDS011;56517;51.634;5.566;2023-03-12T05:46:02;19.98;;;10.73;;
62268;SDS011;56517;51.634;5.566;2023-03-12T05:51:23;24.02;;;11.13;;
62268;SDS011;56517;51.634;5.566;2023-03-12T05:56:44;17.17;;;9.77;;
62268;SDS011;56517;51.634;5.566;2023-03-12T06:02:05;15.10;;;9.43;;
62268;SDS011;56517;51.634;5.566;2023-03-12T06:07:26;18.65;;;10.38;;
62268;SDS011;56517;51.634;5.566;2023-03-12T06:12:47;17.35;;;9.32;;
62268;SDS011;56517;51.634;5.566;2023-03-12T06:18:08;18.30;;;10.07;;
62268;SDS011;56517;51.634;5.566;2023-03-12T06:23:29;19.40;;;11.57;;
62268;SDS011;56517;51.634;5.566;2023-03-12T06:28:50;22.73;;;11.45;;
62268;SDS011;56517;51.634;5.566;2023-03-12T06:34:11;17.33;;;10.80;;
62268;SDS011;56517;51.634;5.566;2023-03-12T06:39:32;27.02;;;11.85;;
62268;SDS011;56517;51.634;5.566;2023-03-12T06:44:52;18.25;;;11.85;;
62268;SDS011;56517;51.634;5.566;2023-03-12T06:50:13;25.55;;;12.70;;
62268;SDS011;56517;51.634;5.566;2023-03-12T06:55:34;22.65;;;11.60;;
62268;SDS011;56517;51.634;5.566;2023-03-12T07:00:55;28.92;;;13.57;;
62268;SDS011;56517;51.634;5.566;2023-03-12T07:06:17;40.05;;;14.80;;
62268;SDS011;56517;51.634;5.566;2023-03-12T07:11:38;36.63;;;15.52;;
62268;SDS011;56517;51.634;5.566;2023-03-12T07:16:59;27.25;;;12.60;;
62268;SDS011;56517;51.634;5.566;2023-03-12T07:22:21;28.30;;;13.57;;
62268;SDS011;56517;51.634;5.566;2023-03-12T07:27:42;28.45;;;15.10;;
62268;SDS011;56517;51.634;5.566;2023-03-12T07:33:08;24.90;;;14.40;;
62268;SDS011;56517;51.634;5.566;2023-03-12T07:38:30;40.55;;;15.20;;
62268;SDS011;56517;51.634;5.566;2023-03-12T07:43:50;31.08;;;14.98;;
62268;SDS011;56517;51.634;5.566;2023-03-12T07:49:11;33.17;;;15.55;;
62268;SDS011;56517;51.634;5.566;2023-03-12T07:54:32;32.20;;;15.43;;
62268;SDS011;56517;51.634;5.566;2023-03-12T07:59:53;24.42;;;14.48;;
62268;SDS011;56517;51.634;5.566;2023-03-12T08:05:14;25.73;;;14.45;;
62268;SDS011;56517;51.634;5.566;2023-03-12T08:10:35;34.85;;;16.75;;
62268;SDS011;56517;51.634;5.566;2023-03-12T08:15:56;27.05;;;15.02;;
62268;SDS011;56517;51.634;5.566;2023-03-12T08:21:17;40.90;;;17.88;;
62268;SDS011;56517;51.634;5.566;2023-03-12T08:26:38;32.97;;;16.13;;
62268;SDS011;56517;51.634;5.566;2023-03-12T08:31:59;29.80;;;14.98;;
62268;SDS011;56517;51.634;5.566;2023-03-12T08:37:20;34.17;;;17.10;;
62268;SDS011;56517;51.634;5.566;2023-03-12T08:42:43;30.38;;;16.23;;
62268;SDS011;56517;51.634;5.566;2023-03-12T08:48:04;26.58;;;16.33;;
62268;SDS011;56517;51.634;5.566;2023-03-12T08:53:26;23.50;;;14.82;;
62268;SDS011;56517;51.634;5.566;2023-03-12T08:58:47;35.15;;;17.30;;
62268;SDS011;56517;51.634;5.566;2023-03-12T09:04:08;47.80;;;22.73;;
62268;SDS011;56517;51.634;5.566;2023-03-12T09:09:28;27.40;;;16.40;;
62268;SDS011;56517;51.634;5.566;2023-03-12T09:14:50;33.33;;;18.90;;
62268;SDS011;56517;51.634;5.566;2023-03-12T09:20:11;37.30;;;21.58;;
62268;SDS011;56517;51.634;5.566;2023-03-12T09:25:33;39.90;;;19.38;;
62268;SDS011;56517;51.634;5.566;2023-03-12T09:30:54;55.35;;;25.75;;
62268;SDS011;56517;51.634;5.566;2023-03-12T09:36:15;58.35;;;24.10;;
62268;SDS011;56517;51.634;5.566;2023-03-12T09:41:37;57.08;;;24.42;;
62268;SDS011;56517;51.634;5.566;2023-03-12T09:47:01;63.80;;;26.98;;
62268;SDS011;56517;51.634;5.566;2023-03-12T09:52:24;62.10;;;28.25;;
62268;SDS011;56517;51.634;5.566;2023-03-12T09:57:47;60.28;;;24.20;;
62268;SDS011;56517;51.634;5.566;2023-03-12T10:14:16;62.35;;;25.08;;
62268;SDS011;56517;51.634;5.566;2023-03-12T10:31:00;49.90;;;22.60;;
62268;SDS011;56517;51.634;5.566;2023-03-12T10:36:35;46.42;;;21.23;;
62268;SDS011;56517;51.634;5.566;2023-03-12T10:41:58;47.67;;;25.65;;
62268;SDS011;56517;51.634;5.566;2023-03-12T10:47:32;55.83;;;25.25;;
62268;SDS011;56517;51.634;5.566;2023-03-12T10:58:41;41.33;;;21.00;;
62268;SDS011;56517;51.634;5.566;2023-03-12T11:09:22;46.53;;;23.92;;
62268;SDS011;56517;51.634;5.566;2023-03-12T11:14:44;44.92;;;18.42;;
62268;SDS011;56517;51.634;5.566;2023-03-12T11:20:40;41.65;;;18.65;;
62268;SDS011;56517;51.634;5.566;2023-03-12T11:26:00;40.20;;;17.10;;
62268;SDS011;56517;51.634;5.566;2023-03-12T11:31:22;44.42;;;18.35;;
62268;SDS011;56517;51.634;5.566;2023-03-12T11:36:48;40.20;;;17.65;;
62268;SDS011;56517;51.634;5.566;2023-03-12T11:47:40;42.97;;;18.48;;
62268;SDS011;56517;51.634;5.566;2023-03-12T11:58:51;42.60;;;16.70;;
62268;SDS011;56517;51.634;5.566;2023-03-12T12:09:56;36.55;;;17.05;;
62268;SDS011;56517;51.634;5.566;2023-03-12T12:26:12;40.97;;;15.63;;
62268;SDS011;56517;51.634;5.566;2023-03-12T12:37:04;30.83;;;10.07;;
62268;SDS011;56517;51.634;5.566;2023-03-12T12:42:31;31.38;;;9.38;;
62268;SDS011;56517;51.634;5.566;2023-03-12T12:48:05;27.35;;;9.88;;
62268;SDS011;56517;51.634;5.566;2023-03-12T12:58:59;29.42;;;9.80;;
62268;SDS011;56517;51.634;5.566;2023-03-12T13:04:32;27.02;;;10.57;;
62268;SDS011;56517;51.634;5.566;2023-03-12T13:09:57;33.13;;;10.77;;
62268;SDS011;56517;51.634;5.566;2023-03-12T13:26:26;23.20;;;9.10;;
62268;SDS011;56517;51.634;5.566;2023-03-12T13:31:48;26.33;;;9.48;;
62268;SDS011;56517;51.634;5.566;2023-03-12T13:38:10;30.45;;;9.10;;
62268;SDS011;56517;51.634;5.566;2023-03-12T13:43:15;30.55;;;8.63;;
62268;SDS011;56517;51.634;5.566;2023-03-12T13:48:37;20.50;;;8.18;;
62268;SDS011;56517;51.634;5.566;2023-03-12T13:54:03;32.60;;;9.13;;
62268;SDS011;56517;51.634;5.566;2023-03-12T13:59:25;42.53;;;10.25;;
62268;SDS011;56517;51.634;5.566;2023-03-12T14:04:46;28.85;;;8.02;;
62268;SDS011;56517;51.634;5.566;2023-03-12T14:15:56;41.58;;;11.45;;
62268;SDS011;56517;51.634;5.566;2023-03-12T14:21:20;30.85;;;9.07;;
62268;SDS011;56517;51.634;5.566;2023-03-12T14:26:41;40.42;;;9.98;;
62268;SDS011;56517;51.634;5.566;2023-03-12T14:32:05;36.92;;;10.05;;
62268;SDS011;56517;51.634;5.566;2023-03-12T14:37:35;36.72;;;11.13;;
62268;SDS011;56517;51.634;5.566;2023-03-12T14:43:00;57.00;;;20.10;;
62268;SDS011;56517;51.634;5.566;2023-03-12T14:48:22;36.10;;;10.77;;
62268;SDS011;56517;51.634;5.566;2023-03-12T14:53:43;34.88;;;10.30;;
62268;SDS011;56517;51.634;5.566;2023-03-12T14:59:21;25.48;;;8.45;;
62268;SDS011;56517;51.634;5.566;2023-03-12T15:04:42;34.90;;;10.32;;
62268;SDS011;56517;51.634;5.566;2023-03-12T15:10:14;33.63;;;9.95;;
62268;SDS011;56517;51.634;5.566;2023-03-12T15:15:43;30.30;;;9.27;;
62268;SDS011;56517;51.634;5.566;2023-03-12T15:21:05;23.17;;;8.00;;
62268;SDS011;56517;51.634;5.566;2023-03-12T15:26:28;36.67;;;9.93;;
62268;SDS011;56517;51.634;5.566;2023-03-12T15:31:49;39.45;;;10.88;;
62268;SDS011;56517;51.634;5.566;2023-03-12T15:37:21;32.15;;;9.35;;
62268;SDS011;56517;51.634;5.566;2023-03-12T15:42:45;30.25;;;9.52;;
62268;SDS011;56517;51.634;5.566;2023-03-12T15:48:22;36.10;;;9.98;;
62268;SDS011;56517;51.634;5.566;2023-03-12T15:53:45;29.10;;;9.65;;
62268;SDS011;56517;51.634;5.566;2023-03-12T16:04:36;34.60;;;8.77;;
62268;SDS011;56517;51.634;5.566;2023-03-12T16:09:56;30.95;;;9.32;;
62268;SDS011;56517;51.634;5.566;2023-03-12T16:15:20;26.35;;;8.68;;
62268;SDS011;56517;51.634;5.566;2023-03-12T16:20:42;36.35;;;10.40;;
62268;SDS011;56517;51.634;5.566;2023-03-12T16:26:03;35.58;;;9.90;;
62268;SDS011;56517;51.634;5.566;2023-03-12T16:31:25;32.67;;;9.55;;
62268;SDS011;56517;51.634;5.566;2023-03-12T16:36:45;37.72;;;9.35;;
62268;SDS011;56517;51.634;5.566;2023-03-12T16:42:14;36.47;;;9.07;;
62268;SDS011;56517;51.634;5.566;2023-03-12T16:47:35;36.83;;;10.98;;
62268;SDS011;56517;51.634;5.566;2023-03-12T16:52:57;34.90;;;10.13;;
62268;SDS011;56517;51.634;5.566;2023-03-12T16:58:18;33.88;;;9.70;;
62268;SDS011;56517;51.634;5.566;2023-03-12T17:03:40;23.88;;;8.40;;
62268;SDS011;56517;51.634;5.566;2023-03-12T17:09:06;36.80;;;10.23;;
62268;SDS011;56517;51.634;5.566;2023-03-12T17:14:28;48.75;;;11.48;;
62268;SDS011;56517;51.634;5.566;2023-03-12T17:19:49;31.48;;;9.13;;
62268;SDS011;56517;51.634;5.566;2023-03-12T17:25:25;38.47;;;10.77;;
62268;SDS011;56517;51.634;5.566;2023-03-12T17:30:46;38.63;;;11.10;;
62268;SDS011;56517;51.634;5.566;2023-03-12T17:36:07;41.58;;;12.00;;
62268;SDS011;56517;51.634;5.566;2023-03-12T17:41:30;35.42;;;10.68;;
62268;SDS011;56517;51.634;5.566;2023-03-12T17:46:51;50.70;;;11.98;;
62268;SDS011;56517;51.634;5.566;2023-03-12T17:52:11;39.50;;;11.70;;
62268;SDS011;56517;51.634;5.566;2023-03-12T17:57:33;34.10;;;10.80;;
62268;SDS011;56517;51.634;5.566;2023-03-12T18:02:54;46.70;;;12.82;;
62268;SDS011;56517;51.634;5.566;2023-03-12T18:08:15;44.65;;;11.23;;
62268;SDS011;56517;51.634;5.566;2023-03-12T18:13:36;44.75;;;12.35;;
62268;SDS011;56517;51.634;5.566;2023-03-12T18:18:57;48.47;;;12.60;;
62268;SDS011;56517;51.634;5.566;2023-03-12T18:24:18;52.85;;;11.88;;
62268;SDS011;56517;51.634;5.566;2023-03-12T18:29:39;43.20;;;11.82;;
62268;SDS011;56517;51.634;5.566;2023-03-12T18:35:00;41.08;;;10.73;;
62268;SDS011;56517;51.634;5.566;2023-03-12T18:40:22;45.45;;;11.05;;
62268;SDS011;56517;51.634;5.566;2023-03-12T18:45:43;45.05;;;11.82;;
62268;SDS011;56517;51.634;5.566;2023-03-12T18:51:04;42.55;;;11.68;;
62268;SDS011;56517;51.634;5.566;2023-03-12T18:56:25;46.05;;;11.65;;
62268;SDS011;56517;51.634;5.566;2023-03-12T19:01:46;49.33;;;11.18;;
62268;SDS011;56517;51.634;5.566;2023-03-12T19:07:07;45.70;;;11.35;;
62268;SDS011;56517;51.634;5.566;2023-03-12T19:12:28;42.03;;;10.60;;
62268;SDS011;56517;51.634;5.566;2023-03-12T19:17:49;47.13;;;12.38;;
62268;SDS011;56517;51.634;5.566;2023-03-12T19:23:10;39.45;;;10.35;;
62268;SDS011;56517;51.634;5.566;2023-03-12T19:28:32;43.35;;;11.68;;
62268;SDS011;56517;51.634;5.566;2023-03-12T19:33:53;47.10;;;12.00;;
62268;SDS011;56517;51.634;5.566;2023-03-12T19:39:13;42.83;;;11.30;;
62268;SDS011;56517;51.634;5.566;2023-03-12T19:44:34;61.65;;;13.20;;
62268;SDS011;56517;51.634;5.566;2023-03-12T19:49:58;51.20;;;11.45;;
62268;SDS011;56517;51.634;5.566;2023-03-12T19:55:20;42.33;;;11.23;;
62268;SDS011;56517;51.634;5.566;2023-03-12T20:00:41;49.03;;;12.27;;
62268;SDS011;56517;51.634;5.566;2023-03-12T20:06:02;53.72;;;12.10;;
62268;SDS011;56517;51.634;5.566;2023-03-12T20:11:23;41.38;;;10.88;;
62268;SDS011;56517;51.634;5.566;2023-03-12T20:16:44;29.63;;;8.90;;
62268;SDS011;56517;51.634;5.566;2023-03-12T20:22:05;43.17;;;9.98;;
62268;SDS011;56517;51.634;5.566;2023-03-12T20:27:26;35.20;;;10.13;;
62268;SDS011;56517;51.634;5.566;2023-03-12T20:32:47;47.50;;;11.57;;
62268;SDS011;56517;51.634;5.566;2023-03-12T20:38:08;43.85;;;11.52;;
62268;SDS011;56517;51.634;5.566;2023-03-12T20:43:29;38.90;;;11.07;;
62268;SDS011;56517;51.634;5.566;2023-03-12T20:48:50;49.97;;;11.60;;
62268;SDS011;56517;51.634;5.566;2023-03-12T20:54:11;37.35;;;11.13;;
62268;SDS011;56517;51.634;5.566;2023-03-12T20:59:32;36.88;;;9.25;;
62268;SDS011;56517;51.634;5.566;2023-03-12T21:04:53;26.95;;;8.95;;
62268;SDS011;56517;51.634;5.566;2023-03-12T21:10:14;38.97;;;11.30;;
62268;SDS011;56517;51.634;5.566;2023-03-12T21:15:35;42.50;;;9.90;;
62268;SDS011;56517;51.634;5.566;2023-03-12T21:21:02;42.70;;;11.25;;
62268;SDS011;56517;51.634;5.566;2023-03-12T21:26:24;40.58;;;10.82;;
62268;SDS011;56517;51.634;5.566;2023-03-12T21:31:44;35.90;;;10.55;;
62268;SDS011;56517;51.634;5.566;2023-03-12T21:37:05;32.72;;;9.38;;
62268;SDS011;56517;51.634;5.566;2023-03-12T21:42:27;39.05;;;12.15;;
62268;SDS011;56517;51.634;5.566;2023-03-12T21:47:48;41.35;;;11.15;;
62268;SDS011;56517;51.634;5.566;2023-03-12T21:53:09;25.92;;;9.43;;
62268;SDS011;56517;51.634;5.566;2023-03-12T21:58:30;41.92;;;11.85;;
62268;SDS011;56517;51.634;5.566;2023-03-12T22:03:51;45.90;;;11.95;;
62268;SDS011;56517;51.634;5.566;2023-03-12T22:09:12;30.67;;;10.70;;
62268;SDS011;56517;51.634;5.566;2023-03-12T22:14:33;37.13;;;10.73;;
62268;SDS011;56517;51.634;5.566;2023-03-12T22:19:54;36.00;;;10.63;;
62268;SDS011;56517;51.634;5.566;2023-03-12T22:25:15;38.63;;;11.07;;
62268;SDS011;56517;51.634;5.566;2023-03-12T22:30:36;37.25;;;9.35;;
62268;SDS011;56517;51.634;5.566;2023-03-12T22:35:57;25.17;;;8.95;;
62268;SDS011;56517;51.634;5.566;2023-03-12T22:46:39;33.03;;;9.73;;
62268;SDS011;56517;51.634;5.566;2023-03-12T22:52:00;20.38;;;8.45;;
62268;SDS011;56517;51.634;5.566;2023-03-12T22:57:20;37.53;;;12.90;;
62268;SDS011;56517;51.634;5.566;2023-03-12T23:02:41;44.78;;;13.30;;
62268;SDS011;56517;51.634;5.566;2023-03-12T23:08:02;33.20;;;10.48;;
62268;SDS011;56517;51.634;5.566;2023-03-12T23:13:24;29.00;;;8.93;;
62268;SDS011;56517;51.634;5.566;2023-03-12T23:18:45;36.17;;;11.52;;
62268;SDS011;56517;51.634;5.566;2023-03-12T23:24:07;35.88;;;10.60;;
62268;SDS011;56517;51.634;5.566;2023-03-12T23:29:28;28.88;;;9.63;;
62268;SDS011;56517;51.634;5.566;2023-03-12T23:34:49;34.97;;;9.93;;
62268;SDS011;56517;51.634;5.566;2023-03-12T23:40:10;36.15;;;11.52;;
62268;SDS011;56517;51.634;5.566;2023-03-12T23:45:31;34.95;;;9.82;;
62268;SDS011;56517;51.634;5.566;2023-03-12T23:50:52;35.22;;;11.15;;
62268;SDS011;56517;51.634;5.566;2023-03-12T23:56:15;35.63;;;10.65;;
